Time;durP1;ratioP1;P1;durP2;ratioP2;P2;SDS_P1;SDS_P2;PMS_P1;PMS_P2;Temp;Humidity;BMP_temperature;BMP_pressure;BME280_temperature;BME280_humidity;BME280_pressure;Samples;Min_cycle;Max_cycle;Signal;HPM_P1;HPM_P2
2021/03/05 00:01:55;;;;;;;14.67;5.43;;;;;;;;;;5017311;28;38928;-74
2021/03/05 00:04:21;;;;;;;14.23;5.40;;;;;;;;;;5042622;28;38172;-76
2021/03/05 00:06:48;;;;;;;17.73;6.50;;;;;;;;;;5017828;28;36892;-75
2021/03/05 00:09:14;;;;;;;13.73;6.73;;;;;;;;;;5024139;28;40008;-76
2021/03/05 00:11:40;;;;;;;19.90;7.07;;;;;;;;;;5021714;28;38895;-75
2021/03/05 00:14:07;;;;;;;13.73;6.63;;;;;;;;;;5030163;27;38073;-76
2021/03/05 00:16:33;;;;;;;13.73;7.83;;;;;;;;;;5048223;28;37541;-77
2021/03/05 00:19:00;;;;;;;16.40;7.83;;;;;;;;;;5041570;28;38403;-76
2021/03/05 00:21:26;;;;;;;16.83;7.43;;;;;;;;;;5042069;28;39677;-76
2021/03/05 00:23:52;;;;;;;13.00;7.73;;;;;;;;;;5052338;27;38820;-76
2021/03/05 00:26:19;;;;;;;13.67;7.77;;;;;;;;;;5052075;27;37057;-78
2021/03/05 00:28:45;;;;;;;12.50;7.10;;;;;;;;;;5044892;27;39700;-78
2021/03/05 00:31:11;;;;;;;12.20;7.07;;;;;;;;;;5037704;28;38570;-77
2021/03/05 00:33:38;;;;;;;11.47;7.40;;;;;;;;;;5058414;27;39096;-75
2021/03/05 00:36:04;;;;;;;11.63;6.83;;;;;;;;;;5039702;27;36776;-76
2021/03/05 00:38:31;;;;;;;13.87;7.50;;;;;;;;;;5035375;28;38900;-75
2021/03/05 00:40:57;;;;;;;12.57;7.63;;;;;;;;;;5046800;28;39244;-76
2021/03/05 00:43:24;;;;;;;12.27;7.03;;;;;;;;;;5051111;27;38482;-76
2021/03/05 00:45:50;;;;;;;10.17;6.67;;;;;;;;;;5033895;28;36400;-75
2021/03/05 00:48:17;;;;;;;10.40;7.20;;;;;;;;;;5038680;27;40421;-77
2021/03/05 00:50:43;;;;;;;13.17;7.60;;;;;;;;;;5055492;28;39859;-76
2021/03/05 00:53:10;;;;;;;13.13;8.10;;;;;;;;;;5030328;28;38081;-77
2021/03/05 00:55:36;;;;;;;11.23;7.03;;;;;;;;;;5044823;28;36747;-77
2021/03/05 00:58:02;;;;;;;13.57;7.97;;;;;;;;;;5053056;27;40953;-75
2021/03/05 01:00:29;;;;;;;11.83;7.20;;;;;;;;;;5036090;28;38327;-76
2021/03/05 01:02:56;;;;;;;14.77;7.70;;;;;;;;;;5048490;28;37967;-74
2021/03/05 01:05:22;;;;;;;13.17;7.97;;;;;;;;;;5033832;28;38337;-76
2021/03/05 01:07:48;;;;;;;12.10;7.63;;;;;;;;;;5028018;28;38428;-76
2021/03/05 01:10:15;;;;;;;12.77;7.70;;;;;;;;;;5020936;28;39609;-75
2021/03/05 01:12:41;;;;;;;15.27;7.17;;;;;;;;;;5026415;28;39479;-75
2021/03/05 01:15:08;;;;;;;15.17;7.63;;;;;;;;;;5024802;28;37626;-75
2021/03/05 01:17:34;;;;;;;10.57;7.03;;;;;;;;;;5021027;28;40475;-74
2021/03/05 01:20:01;;;;;;;10.40;7.83;;;;;;;;;;5033728;28;38573;-75
2021/03/05 01:22:28;;;;;;;11.27;7.17;;;;;;;;;;5020359;28;39372;-75
2021/03/05 01:24:54;;;;;;;11.77;7.30;;;;;;;;;;5023218;28;36542;-76
2021/03/05 01:27:21;;;;;;;11.20;7.13;;;;;;;;;;5024878;28;38833;-75
2021/03/05 01:29:47;;;;;;;14.10;8.03;;;;;;;;;;5015651;28;39037;-76
2021/03/05 01:32:14;;;;;;;12.10;7.83;;;;;;;;;;5019777;28;39164;-75
2021/03/05 01:34:40;;;;;;;10.53;7.50;;;;;;;;;;5020119;28;36731;-75
2021/03/05 01:37:06;;;;;;;12.33;8.60;;;;;;;;;;5013067;28;38707;-75
2021/03/05 01:39:33;;;;;;;14.00;8.73;;;;;;;;;;5022616;28;38176;-75
2021/03/05 01:41:59;;;;;;;19.87;8.80;;;;;;;;;;5024196;28;38908;-76
2021/03/05 01:44:26;;;;;;;13.13;8.30;;;;;;;;;;5017533;28;37009;-77
2021/03/05 01:46:52;;;;;;;16.67;9.43;;;;;;;;;;5024501;28;37859;-77
2021/03/05 01:49:18;;;;;;;14.37;9.37;;;;;;;;;;5024855;28;39078;-76
2021/03/05 01:51:45;;;;;;;14.47;9.37;;;;;;;;;;5020938;28;38140;-74
2021/03/05 01:54:11;;;;;;;17.77;10.77;;;;;;;;;;5024239;28;36798;-76
2021/03/05 01:56:46;;;;;;;16.77;9.90;;;;;;;;;;5026349;28;38974;-74
2021/03/05 01:59:15;;;;;;;19.23;10.47;;;;;;;;;;5026769;28;39155;-74
2021/03/05 02:01:41;;;;;;;19.20;10.53;;;;;;;;;;5018086;28;38038;-78
2021/03/05 02:04:08;;;;;;;20.10;10.47;;;;;;;;;;5025718;28;38682;-78
2021/03/05 02:06:36;;;;;;;19.27;12.10;;;;;;;;;;5026270;28;39146;-77
2021/03/05 02:09:03;;;;;;;21.07;11.27;;;;;;;;;;5041836;28;39402;-77
2021/03/05 02:11:30;;;;;;;22.90;11.87;;;;;;;;;;5027917;28;37375;-75
2021/03/05 02:13:57;;;;;;;19.67;12.17;;;;;;;;;;5019621;28;37837;-76
2021/03/05 02:16:29;;;;;;;21.33;13.30;;;;;;;;;;5021590;28;38454;-75
2021/03/05 02:18:58;;;;;;;20.70;13.23;;;;;;;;;;5024626;28;39922;-74
2021/03/05 02:21:27;;;;;;;19.50;12.93;;;;;;;;;;5020677;28;36838;-74
2021/03/05 02:23:54;;;;;;;21.53;13.27;;;;;;;;;;5023492;28;35764;-74
2021/03/05 02:26:52;;;;;;;18.33;11.87;;;;;;;;;;5024875;28;40130;-74
2021/03/05 02:29:18;;;;;;;22.40;12.73;;;;;;;;;;5046740;28;40163;-74
2021/03/05 02:31:48;;;;;;;22.03;12.13;;;;;;;;;;5031333;28;38567;-74
2021/03/05 02:34:17;;;;;;;24.23;12.83;;;;;;;;;;5022316;28;37763;-77
2021/03/05 02:36:53;;;;;;;19.87;12.77;;;;;;;;;;5035638;28;39467;-75
2021/03/05 02:39:33;;;;;;;22.63;13.53;;;;;;;;;;5024692;28;39238;-74
2021/03/05 02:42:03;;;;;;;24.33;12.93;;;;;;;;;;5023405;28;39059;-75
2021/03/05 02:44:32;;;;;;;21.33;12.53;;;;;;;;;;5015589;28;47274;-76
2021/03/05 02:47:01;;;;;;;28.30;12.93;;;;;;;;;;5020475;28;38951;-75
2021/03/05 02:49:29;;;;;;;20.20;13.10;;;;;;;;;;5023525;28;49117;-75
2021/03/05 02:51:57;;;;;;;30.47;15.43;;;;;;;;;;5021173;28;38225;-74
2021/03/05 02:54:23;;;;;;;27.47;13.53;;;;;;;;;;5026300;28;36838;-74
2021/03/05 02:56:50;;;;;;;27.43;14.40;;;;;;;;;;5028996;28;39091;-76
2021/03/05 02:59:16;;;;;;;29.40;14.87;;;;;;;;;;5019016;28;37341;-74
2021/03/05 03:01:47;;;;;;;24.37;14.30;;;;;;;;;;5021780;28;39307;-74
2021/03/05 03:04:14;;;;;;;23.47;13.37;;;;;;;;;;5027164;28;36441;-74
2021/03/05 03:06:42;;;;;;;28.87;13.90;;;;;;;;;;5033552;28;40807;-74
2021/03/05 03:09:09;;;;;;;27.67;13.43;;;;;;;;;;5043224;28;39954;-75
2021/03/05 03:11:38;;;;;;;19.50;11.27;;;;;;;;;;5020160;28;41702;-73
2021/03/05 03:14:05;;;;;;;25.57;11.57;;;;;;;;;;5014702;28;38637;-74
2021/03/05 03:16:31;;;;;;;25.50;12.83;;;;;;;;;;5024695;28;39829;-74
2021/03/05 03:18:58;;;;;;;28.70;12.50;;;;;;;;;;5023712;28;40066;-73
2021/03/05 03:21:26;;;;;;;23.13;12.07;;;;;;;;;;5035308;28;38095;-75
2021/03/05 03:23:54;;;;;;;22.70;11.07;;;;;;;;;;5036627;28;38300;-74
2021/03/05 03:26:20;;;;;;;23.40;10.83;;;;;;;;;;5036204;27;40145;-75
2021/03/05 03:28:46;;;;;;;26.57;10.93;;;;;;;;;;5057246;27;39082;-74
2021/03/05 03:31:15;;;;;;;23.10;10.70;;;;;;;;;;5052305;27;36321;-75
2021/03/05 03:33:41;;;;;;;24.90;10.35;;;;;;;;;;5038108;28;37049;-76
2021/03/05 03:36:08;;;;;;;23.63;11.07;;;;;;;;;;5048440;27;40893;-73
2021/03/05 03:38:35;;;;;;;21.47;9.07;;;;;;;;;;5038577;28;39548;-74
2021/03/05 03:41:02;;;;;;;27.47;9.60;;;;;;;;;;5040872;28;38185;-79
2021/03/05 03:43:28;;;;;;;27.67;12.20;;;;;;;;;;5025246;28;49069;-74
2021/03/05 03:45:55;;;;;;;23.03;8.63;;;;;;;;;;5027402;28;40754;-74
2021/03/05 03:48:21;;;;;;;21.97;8.97;;;;;;;;;;5024524;28;39120;-74
2021/03/05 03:50:52;;;;;;;24.27;7.80;;;;;;;;;;5021804;28;36648;-75
2021/03/05 03:53:20;;;;;;;23.60;8.23;;;;;;;;;;5018297;28;36777;-75
2021/03/05 03:55:50;;;;;;;25.27;8.00;;;;;;;;;;5027980;28;37972;-75
2021/03/05 03:58:17;;;;;;;17.87;6.13;;;;;;;;;;5018740;28;38793;-76
2021/03/05 04:00:45;;;;;;;20.03;7.10;;;;;;;;;;5042759;28;37777;-76
2021/03/05 04:03:11;;;;;;;19.97;6.87;;;;;;;;;;5035533;28;37513;-78
2021/03/05 04:05:39;;;;;;;21.87;5.73;;;;;;;;;;5044816;28;38960;-73
2021/03/05 04:08:07;;;;;;;17.43;5.30;;;;;;;;;;5057207;28;39971;-75
2021/03/05 04:10:35;;;;;;;19.90;5.13;;;;;;;;;;5065785;27;36614;-75
2021/03/05 04:13:02;;;;;;;17.57;5.97;;;;;;;;;;5040992;28;37574;-75
2021/03/05 04:15:29;;;;;;;17.90;5.40;;;;;;;;;;5034665;28;38602;-75
2021/03/05 04:17:55;;;;;;;19.43;5.27;;;;;;;;;;5023945;28;38861;-74
2021/03/05 04:20:23;;;;;;;17.13;5.27;;;;;;;;;;5020524;28;36489;-77
2021/03/05 04:22:50;;;;;;;28.63;5.37;;;;;;;;;;5026465;28;33980;-76
2021/03/05 04:25:17;;;;;;;15.13;4.97;;;;;;;;;;5034918;28;39418;-76
2021/03/05 04:27:43;;;;;;;18.03;5.63;;;;;;;;;;5045485;28;39747;-75
2021/03/05 04:30:11;;;;;;;23.43;4.53;;;;;;;;;;5051885;28;40059;-77
2021/03/05 04:32:39;;;;;;;20.70;4.17;;;;;;;;;;5054511;28;36889;-77
2021/03/05 04:35:06;;;;;;;19.50;5.33;;;;;;;;;;5015929;28;40836;-76
2021/03/05 04:37:32;;;;;;;13.57;3.67;;;;;;;;;;5033515;28;39004;-75
2021/03/05 04:39:59;;;;;;;25.83;4.23;;;;;;;;;;5049135;28;37736;-74
2021/03/05 04:42:25;;;;;;;20.93;3.97;;;;;;;;;;5015497;28;37785;-78
2021/03/05 04:44:52;;;;;;;22.10;4.63;;;;;;;;;;5028359;28;37239;-78
2021/03/05 04:47:18;;;;;;;20.40;4.57;;;;;;;;;;5033364;28;38853;-75
2021/03/05 04:49:44;;;;;;;13.10;3.57;;;;;;;;;;5048761;28;39323;-75
2021/03/05 04:52:11;;;;;;;17.83;3.60;;;;;;;;;;5029885;28;36558;-77
2021/03/05 04:54:37;;;;;;;16.93;3.63;;;;;;;;;;5054048;27;40508;-75
2021/03/05 04:57:04;;;;;;;17.30;3.00;;;;;;;;;;5043953;28;39008;-77
2021/03/05 04:59:30;;;;;;;19.63;3.10;;;;;;;;;;5043127;27;37730;-74
2021/03/05 05:01:57;;;;;;;21.97;3.53;;;;;;;;;;5048799;27;40737;-73
2021/03/05 05:04:23;;;;;;;16.10;3.20;;;;;;;;;;5040415;28;40342;-75
2021/03/05 05:06:49;;;;;;;21.90;3.27;;;;;;;;;;5050448;28;39783;-73
2021/03/05 05:09:16;;;;;;;13.30;2.53;;;;;;;;;;5049441;27;38519;-75
2021/03/05 05:11:42;;;;;;;16.20;2.67;;;;;;;;;;5034375;28;37993;-75
2021/03/05 05:14:09;;;;;;;21.80;3.17;;;;;;;;;;5036943;28;40411;-75
2021/03/05 05:16:35;;;;;;;17.33;2.80;;;;;;;;;;5037837;28;38330;-74
2021/03/05 05:19:02;;;;;;;21.93;3.03;;;;;;;;;;5023784;28;36340;-78
2021/03/05 05:21:28;;;;;;;20.40;3.13;;;;;;;;;;5029455;28;47187;-74
2021/03/05 05:23:54;;;;;;;17.53;4.10;;;;;;;;;;5012293;28;39171;-74
2021/03/05 05:26:21;;;;;;;15.53;3.47;;;;;;;;;;5030234;28;37450;-74
2021/03/05 05:28:47;;;;;;;20.27;4.70;;;;;;;;;;5017762;28;37731;-74
2021/03/05 05:31:14;;;;;;;17.50;3.00;;;;;;;;;;5018334;28;37147;-77
2021/03/05 05:33:40;;;;;;;19.90;3.03;;;;;;;;;;5021800;28;39210;-76
2021/03/05 05:36:07;;;;;;;14.57;2.53;;;;;;;;;;5040177;28;39107;-75
2021/03/05 05:38:33;;;;;;;13.37;3.17;;;;;;;;;;5016564;28;38379;-74
2021/03/05 05:41:00;;;;;;;20.23;4.20;;;;;;;;;;5023505;28;37825;-75
2021/03/05 05:43:30;;;;;;;14.17;3.20;;;;;;;;;;5019550;28;48253;-74
2021/03/05 05:46:07;;;;;;;24.03;3.10;;;;;;;;;;5021720;28;37386;-74
2021/03/05 05:48:37;;;;;;;16.83;2.87;;;;;;;;;;5049145;28;46950;-72
2021/03/05 05:51:05;;;;;;;17.37;2.37;;;;;;;;;;5060507;27;37582;-73
2021/03/05 05:53:34;;;;;;;12.17;2.37;;;;;;;;;;5047100;28;38981;-75
2021/03/05 05:56:00;;;;;;;20.87;2.83;;;;;;;;;;5052344;28;38235;-73
2021/03/05 05:58:28;;;;;;;18.17;3.50;;;;;;;;;;5037911;28;37503;-75
2021/03/05 06:00:55;;;;;;;11.73;1.90;;;;;;;;;;5037574;28;37993;-75
2021/03/05 06:03:24;;;;;;;15.67;2.50;;;;;;;;;;5038072;28;39828;-76
2021/03/05 06:05:51;;;;;;;13.57;2.60;;;;;;;;;;5047461;28;38716;-75
2021/03/05 06:08:18;;;;;;;15.13;2.60;;;;;;;;;;5051330;27;39390;-75
2021/03/05 06:10:44;;;;;;;21.77;3.50;;;;;;;;;;5044246;28;37877;-75
2021/03/05 06:13:12;;;;;;;20.00;3.90;;;;;;;;;;5032009;28;38620;-75
2021/03/05 06:15:39;;;;;;;14.37;3.67;;;;;;;;;;5045149;27;38091;-74
2021/03/05 06:18:06;;;;;;;20.03;3.83;;;;;;;;;;5035186;28;37599;-75
2021/03/05 06:20:45;;;;;;;16.53;3.23;;;;;;;;;;5049983;28;38217;-78
2021/03/05 06:23:13;;;;;;;18.90;3.60;;;;;;;;;;5036352;28;39182;-76
2021/03/05 06:25:39;;;;;;;15.23;3.27;;;;;;;;;;5043911;28;37851;-75
2021/03/05 06:28:15;;;;;;;17.43;3.63;;;;;;;;;;5040545;28;38902;-73
2021/03/05 06:30:42;;;;;;;10.17;2.67;;;;;;;;;;5052124;27;37232;-78
2021/03/05 06:33:22;;;;;;;12.27;2.97;;;;;;;;;;5032223;27;41074;-75
2021/03/05 06:35:49;;;;;;;13.57;2.50;;;;;;;;;;5044317;27;38398;-75
2021/03/05 06:38:34;;;;;;;18.80;3.37;;;;;;;;;;5020327;28;39828;-75
2021/03/05 06:41:14;;;;;;;18.37;3.13;;;;;;;;;;5026225;28;37653;-77
2021/03/05 06:43:44;;;;;;;12.40;2.83;;;;;;;;;;5025739;28;47805;-75
2021/03/05 06:46:29;;;;;;;19.10;2.73;;;;;;;;;;5016130;28;38565;-74
2021/03/05 06:48:57;;;;;;;16.57;3.33;;;;;;;;;;5018743;28;38664;-75
2021/03/05 06:51:24;;;;;;;9.77;2.47;;;;;;;;;;5052425;28;38654;-75
2021/03/05 06:54:01;;;;;;;12.17;2.93;;;;;;;;;;5027445;28;38413;-77
2021/03/05 06:56:31;;;;;;;20.70;2.63;;;;;;;;;;5035245;28;47161;-75
2021/03/05 06:59:05;;;;;;;16.63;3.30;;;;;;;;;;5034973;28;37840;-75
2021/03/05 07:01:32;;;;;;;22.13;4.03;;;;;;;;;;5036814;28;48342;-74
2021/03/05 07:04:05;;;;;;;22.90;3.77;;;;;;;;;;5029211;28;41403;-75
2021/03/05 07:06:32;;;;;;;20.70;2.90;;;;;;;;;;5067293;28;47352;-76
2021/03/05 07:08:58;;;;;;;26.90;4.03;;;;;;;;;;5070245;27;40498;-76
2021/03/05 07:11:33;;;;;;;14.53;3.07;;;;;;;;;;5040717;28;37110;-74
2021/03/05 07:13:59;;;;;;;18.63;3.33;;;;;;;;;;5044298;28;39992;-75
2021/03/05 07:16:25;;;;;;;14.67;2.87;;;;;;;;;;5038088;28;39502;-75
2021/03/05 07:18:52;;;;;;;18.37;3.50;;;;;;;;;;5053224;27;38102;-76
2021/03/05 07:21:19;;;;;;;16.83;2.90;;;;;;;;;;5031354;28;36908;-75
2021/03/05 07:23:46;;;;;;;18.40;3.63;;;;;;;;;;5031012;28;40112;-75
2021/03/05 07:26:13;;;;;;;17.90;3.63;;;;;;;;;;5053920;28;39738;-75
2021/03/05 07:28:44;;;;;;;14.10;2.87;;;;;;;;;;5041089;28;36950;-74
2021/03/05 07:31:11;;;;;;;22.87;3.27;;;;;;;;;;5044243;27;35677;-74
2021/03/05 07:33:38;;;;;;;13.30;3.07;;;;;;;;;;5021914;28;38556;-76
2021/03/05 07:36:09;;;;;;;19.50;3.20;;;;;;;;;;5034444;28;37365;-75
2021/03/05 07:38:39;;;;;;;15.83;2.87;;;;;;;;;;5018450;28;37378;-77
2021/03/05 07:41:07;;;;;;;19.43;3.43;;;;;;;;;;5021821;28;38797;-75
2021/03/05 07:43:33;;;;;;;11.77;3.10;;;;;;;;;;5023538;28;39003;-76
2021/03/05 07:46:00;;;;;;;19.30;3.20;;;;;;;;;;5024120;28;38071;-75
2021/03/05 07:48:27;;;;;;;30.30;4.87;;;;;;;;;;5023894;28;39336;-77
2021/03/05 07:50:58;;;;;;;18.20;3.90;;;;;;;;;;5036195;28;37180;-77
2021/03/05 07:53:24;;;;;;;24.97;3.53;;;;;;;;;;5015968;28;40119;-77
2021/03/05 07:55:51;;;;;;;15.50;3.30;;;;;;;;;;5019943;28;39159;-74
2021/03/05 07:58:36;;;;;;;14.43;3.07;;;;;;;;;;5012076;28;36645;-74
2021/03/05 08:01:02;;;;;;;17.10;3.57;;;;;;;;;;5012435;28;37165;-74
2021/03/05 08:03:49;;;;;;;19.90;3.70;;;;;;;;;;5019321;28;40027;-77
2021/03/05 08:06:30;;;;;;;16.13;3.80;;;;;;;;;;5028947;28;38623;-75
2021/03/05 08:09:10;;;;;;;20.00;3.30;;;;;;;;;;5023487;28;38330;-74
2021/03/05 08:11:39;;;;;;;22.60;3.97;;;;;;;;;;5032711;28;47699;-75
2021/03/05 08:14:34;;;;;;;17.10;3.37;;;;;;;;;;5031531;28;38033;-74
2021/03/05 08:17:00;;;;;;;11.50;3.43;;;;;;;;;;5018617;28;38823;-77
2021/03/05 08:19:33;;;;;;;22.17;3.50;;;;;;;;;;5029158;28;48474;-74
2021/03/05 08:22:03;;;;;;;16.70;3.33;;;;;;;;;;5036277;28;39182;-76
2021/03/05 08:24:30;;;;;;;20.47;3.93;;;;;;;;;;5045335;28;47278;-76
2021/03/05 08:27:02;;;;;;;11.73;3.00;;;;;;;;;;5023137;28;38303;-76
2021/03/05 08:29:47;;;;;;;16.50;4.28;;;;;;;;;;5020811;28;46795;-75
2021/03/05 08:32:34;;;;;;;15.27;2.77;;;;;;;;;;5017644;28;37732;-76
2021/03/05 08:35:02;;;;;;;11.80;2.60;;;;;;;;;;5050074;28;37843;-76
2021/03/05 08:37:36;;;;;;;11.70;2.63;;;;;;;;;;5020126;28;38142;-76
2021/03/05 08:40:11;;;;;;;12.67;2.20;;;;;;;;;;5015135;28;39363;-74
2021/03/05 08:42:41;;;;;;;11.70;2.47;;;;;;;;;;5031738;28;47128;-74
2021/03/05 08:45:07;;;;;;;15.80;2.90;;;;;;;;;;5029138;28;38311;-76
2021/03/05 08:47:35;;;;;;;8.63;2.60;;;;;;;;;;5028377;28;39382;-75
2021/03/05 08:50:03;;;;;;;10.93;2.90;;;;;;;;;;5025178;28;38351;-75
2021/03/05 08:52:29;;;;;;;10.83;2.70;;;;;;;;;;5022155;28;37313;-75
2021/03/05 08:54:56;;;;;;;11.97;2.53;;;;;;;;;;5028173;28;39471;-75
2021/03/05 08:57:23;;;;;;;12.07;2.43;;;;;;;;;;5021868;28;37909;-76
2021/03/05 08:59:51;;;;;;;9.37;2.43;;;;;;;;;;5027174;28;39510;-76
2021/03/05 09:02:18;;;;;;;7.43;2.40;;;;;;;;;;5032020;28;37147;-75
2021/03/05 09:04:44;;;;;;;5.70;2.00;;;;;;;;;;5026789;28;38590;-77
2021/03/05 09:07:13;;;;;;;7.13;2.03;;;;;;;;;;5039915;28;38663;-75
2021/03/05 09:09:40;;;;;;;6.63;1.73;;;;;;;;;;5058679;27;38563;-76
2021/03/05 09:12:13;;;;;;;9.97;2.73;;;;;;;;;;5060678;27;37847;-75
2021/03/05 09:14:40;;;;;;;5.68;1.70;;;;;;;;;;5048929;27;41144;-75
2021/03/05 09:17:07;;;;;;;8.80;2.00;;;;;;;;;;5053667;28;38535;-75
2021/03/05 09:19:34;;;;;;;4.80;2.07;;;;;;;;;;5058276;27;38422;-74
2021/03/05 09:22:19;;;;;;;11.07;2.30;;;;;;;;;;5058735;27;36906;-75
2021/03/05 09:24:56;;;;;;;6.93;2.07;;;;;;;;;;5036562;28;48902;-75
2021/03/05 09:27:24;;;;;;;11.00;2.60;;;;;;;;;;5043498;28;38739;-77
2021/03/05 09:29:50;;;;;;;8.93;2.20;;;;;;;;;;5035484;28;39530;-79
2021/03/05 09:32:17;;;;;;;7.47;2.63;;;;;;;;;;5040062;28;36665;-76
2021/03/05 09:34:49;;;;;;;9.30;2.57;;;;;;;;;;5036967;28;38999;-77
2021/03/05 09:37:19;;;;;;;9.48;1.92;;;;;;;;;;5033209;28;40103;-74
2021/03/05 09:39:47;;;;;;;5.30;1.90;;;;;;;;;;5047193;27;39667;-77
2021/03/05 09:42:14;;;;;;;8.10;2.10;;;;;;;;;;5040097;28;36764;-77
2021/03/05 09:44:47;;;;;;;5.30;1.77;;;;;;;;;;5038013;28;40693;-76
2021/03/05 09:47:14;;;;;;;6.07;2.10;;;;;;;;;;5042521;28;39888;-74
2021/03/05 09:49:40;;;;;;;6.87;1.90;;;;;;;;;;5045089;28;37938;-73
2021/03/05 09:52:26;;;;;;;7.60;2.13;;;;;;;;;;5036293;28;37084;-73
2021/03/05 09:54:54;;;;;;;8.83;2.37;;;;;;;;;;5048848;28;38858;-73
2021/03/05 09:57:24;;;;;;;8.40;2.00;;;;;;;;;;5035901;28;38638;-73
2021/03/05 09:59:51;;;;;;;6.03;2.10;;;;;;;;;;5042558;28;38147;-74
2021/03/05 10:02:20;;;;;;;6.63;1.83;;;;;;;;;;5048367;27;35575;-74
2021/03/05 10:04:48;;;;;;;5.70;2.00;;;;;;;;;;5034710;28;38837;-75
2021/03/05 10:07:14;;;;;;;4.27;1.53;;;;;;;;;;5052786;27;38514;-74
2021/03/05 10:09:41;;;;;;;9.53;1.80;;;;;;;;;;5042209;28;37853;-76
2021/03/05 10:12:07;;;;;;;5.87;2.23;;;;;;;;;;5056330;27;37893;-74
2021/03/05 10:14:37;;;;;;;4.40;1.83;;;;;;;;;;5045139;28;37820;-74
2021/03/05 10:17:06;;;;;;;5.30;1.40;;;;;;;;;;5058963;28;41006;-74
2021/03/05 10:19:33;;;;;;;3.67;0.90;;;;;;;;;;5037535;28;37978;-74
2021/03/05 10:22:00;;;;;;;6.80;1.40;;;;;;;;;;5042429;28;36532;-75
2021/03/05 10:24:27;;;;;;;5.00;1.03;;;;;;;;;;5044876;28;39565;-74
2021/03/05 10:27:10;;;;;;;4.73;1.20;;;;;;;;;;5033232;28;38009;-73
2021/03/05 10:29:57;;;;;;;6.38;1.20;;;;;;;;;;5031525;28;47302;-75
2021/03/05 10:32:25;;;;;;;5.27;1.00;;;;;;;;;;5022284;28;37166;-75
2021/03/05 10:34:56;;;;;;;3.77;0.90;;;;;;;;;;5025669;28;38787;-76
2021/03/05 10:37:22;;;;;;;2.63;0.80;;;;;;;;;;5036674;28;37663;-75
2021/03/05 10:39:49;;;;;;;1.97;0.70;;;;;;;;;;5020904;28;38092;-75
2021/03/05 10:42:17;;;;;;;4.23;1.13;;;;;;;;;;5024537;28;36803;-73
2021/03/05 10:44:44;;;;;;;2.70;0.60;;;;;;;;;;5017159;28;39045;-75
2021/03/05 10:47:12;;;;;;;1.47;0.50;;;;;;;;;;5015958;28;38887;-75
2021/03/05 10:49:38;;;;;;;1.70;0.50;;;;;;;;;;5027174;28;36923;-73
2021/03/05 10:52:06;;;;;;;4.87;0.80;;;;;;;;;;5038700;28;37765;-74
2021/03/05 10:54:32;;;;;;;2.33;0.33;;;;;;;;;;5021325;28;40051;-74
2021/03/05 10:56:58;;;;;;;3.43;0.60;;;;;;;;;;5045802;28;38415;-78
2021/03/05 10:59:25;;;;;;;9.07;1.10;;;;;;;;;;5023350;28;36915;-78
2021/03/05 11:01:53;;;;;;;5.03;0.80;;;;;;;;;;5017622;28;37239;-75
2021/03/05 11:04:23;;;;;;;1.77;0.60;;;;;;;;;;5022167;28;39097;-76
2021/03/05 11:06:50;;;;;;;3.40;0.70;;;;;;;;;;5026553;28;39498;-75
2021/03/05 11:09:20;;;;;;;11.10;1.10;;;;;;;;;;5018697;28;36846;-75
2021/03/05 11:11:47;;;;;;;6.40;0.70;;;;;;;;;;5022291;28;36717;-77
2021/03/05 11:14:13;;;;;;;2.47;0.60;;;;;;;;;;5031962;28;37922;-74
2021/03/05 11:16:40;;;;;;;3.20;0.90;;;;;;;;;;5022185;28;37088;-76
2021/03/05 11:19:07;;;;;;;2.27;0.90;;;;;;;;;;5030695;28;36594;-76
2021/03/05 11:21:34;;;;;;;3.93;1.10;;;;;;;;;;5026685;28;35644;-75
2021/03/05 11:24:00;;;;;;;3.50;1.23;;;;;;;;;;5015974;28;39235;-77
2021/03/05 11:26:27;;;;;;;3.90;0.80;;;;;;;;;;5018926;28;48589;-79
2021/03/05 11:28:54;;;;;;;7.17;0.83;;;;;;;;;;5020944;28;36809;-74
2021/03/05 11:31:20;;;;;;;2.97;0.90;;;;;;;;;;5023262;28;35952;-74
2021/03/05 11:33:47;;;;;;;4.70;1.13;;;;;;;;;;5038358;28;37687;-77
2021/03/05 11:36:14;;;;;;;4.33;0.80;;;;;;;;;;5025239;28;37233;-78
2021/03/05 11:38:41;;;;;;;2.20;0.63;;;;;;;;;;5054758;28;36660;-79
2021/03/05 11:41:08;;;;;;;3.50;0.70;;;;;;;;;;5018138;28;39847;-76
2021/03/05 11:43:36;;;;;;;5.00;0.70;;;;;;;;;;5038430;28;37717;-77
2021/03/05 11:46:03;;;;;;;3.33;0.67;;;;;;;;;;5030928;28;37282;-79
2021/03/05 11:48:29;;;;;;;4.40;0.60;;;;;;;;;;5021199;28;37874;-78
2021/03/05 11:50:55;;;;;;;6.27;1.20;;;;;;;;;;5021330;28;36024;-80
2021/03/05 11:53:22;;;;;;;1.93;0.50;;;;;;;;;;5021385;28;37741;-77
2021/03/05 11:55:48;;;;;;;5.60;0.50;;;;;;;;;;5029697;28;37235;-80
2021/03/05 11:58:15;;;;;;;2.47;0.30;;;;;;;;;;5044639;28;37899;-79
2021/03/05 12:00:41;;;;;;;2.07;0.87;;;;;;;;;;5043025;28;36401;-78
2021/03/05 12:03:08;;;;;;;3.10;0.70;;;;;;;;;;5040796;28;37959;-78
2021/03/05 12:05:35;;;;;;;4.53;0.97;;;;;;;;;;5040010;28;38590;-78
2021/03/05 12:08:02;;;;;;;3.23;0.87;;;;;;;;;;5041266;28;36823;-78
2021/03/05 12:10:28;;;;;;;4.03;0.40;;;;;;;;;;5048258;27;36670;-77
2021/03/05 12:12:55;;;;;;;3.53;0.53;;;;;;;;;;5039569;28;37925;-78
2021/03/05 12:15:21;;;;;;;2.73;0.90;;;;;;;;;;5041650;28;39093;-78
2021/03/05 12:17:47;;;;;;;3.97;0.93;;;;;;;;;;5037195;28;39585;-77
2021/03/05 12:20:14;;;;;;;7.27;0.60;;;;;;;;;;5044439;28;35930;-78
2021/03/05 12:22:40;;;;;;;3.67;1.13;;;;;;;;;;5056429;27;37781;-76
2021/03/05 12:25:08;;;;;;;2.97;0.60;;;;;;;;;;5048033;27;39364;-76
2021/03/05 12:27:34;;;;;;;6.07;1.23;;;;;;;;;;5041992;28;37831;-78
2021/03/05 12:30:01;;;;;;;4.77;0.80;;;;;;;;;;5042052;28;37102;-81
2021/03/05 12:32:28;;;;;;;7.07;0.67;;;;;;;;;;5044415;28;39538;-81
2021/03/05 12:34:54;;;;;;;2.60;0.60;;;;;;;;;;5066307;28;38004;-83
2021/03/05 12:37:20;;;;;;;2.90;0.70;;;;;;;;;;5041684;28;38474;-81
2021/03/05 12:39:47;;;;;;;3.37;0.70;;;;;;;;;;5027756;28;35855;-79
2021/03/05 12:42:13;;;;;;;4.47;0.60;;;;;;;;;;5057310;28;39694;-82
2021/03/05 12:44:40;;;;;;;6.97;0.67;;;;;;;;;;5034977;28;38753;-80
2021/03/05 12:47:06;;;;;;;4.13;1.13;;;;;;;;;;5036425;28;38142;-78
2021/03/05 12:49:32;;;;;;;4.20;0.83;;;;;;;;;;5018373;28;37722;-77
2021/03/05 12:51:59;;;;;;;3.83;1.00;;;;;;;;;;5022233;28;39016;-81
2021/03/05 12:54:25;;;;;;;2.67;0.77;;;;;;;;;;5041743;28;39020;-82
2021/03/05 12:56:52;;;;;;;3.17;0.80;;;;;;;;;;5045274;28;38584;-80
2021/03/05 12:59:18;;;;;;;2.57;0.80;;;;;;;;;;5054561;27;35797;-77
2021/03/05 13:01:44;;;;;;;2.43;0.60;;;;;;;;;;5045682;28;38603;-77
2021/03/05 13:04:11;;;;;;;2.53;0.53;;;;;;;;;;5050561;28;39014;-79
2021/03/05 13:06:37;;;;;;;3.53;0.50;;;;;;;;;;5051673;28;38842;-72
2021/03/05 13:09:04;;;;;;;2.77;0.70;;;;;;;;;;5023638;28;36559;-74
2021/03/05 13:11:30;;;;;;;4.63;0.70;;;;;;;;;;5025862;28;40424;-77
2021/03/05 13:13:57;;;;;;;3.00;0.87;;;;;;;;;;5042716;28;39760;-79
2021/03/05 13:16:23;;;;;;;3.93;0.80;;;;;;;;;;5059892;27;38462;-78
2021/03/05 13:18:49;;;;;;;3.27;0.80;;;;;;;;;;5059038;27;37167;-77
2021/03/05 13:21:16;;;;;;;6.77;0.80;;;;;;;;;;5041195;28;39255;-79
2021/03/05 13:23:42;;;;;;;6.40;0.77;;;;;;;;;;5058732;27;39075;-76
2021/03/05 13:26:14;;;;;;;3.33;0.67;;;;;;;;;;5060495;27;37578;-76
2021/03/05 13:28:41;;;;;;;1.63;0.83;;;;;;;;;;5042727;28;36687;-76
2021/03/05 13:31:08;;;;;;;2.83;1.17;;;;;;;;;;5058261;27;37804;-77
2021/03/05 13:33:34;;;;;;;3.97;0.83;;;;;;;;;;5038491;28;39571;-75
2021/03/05 13:36:00;;;;;;;3.80;0.90;;;;;;;;;;5039919;28;38626;-74
2021/03/05 13:38:28;;;;;;;3.37;0.70;;;;;;;;;;5056784;27;35786;-78
2021/03/05 13:40:55;;;;;;;4.27;0.87;;;;;;;;;;5040742;28;41005;-76
2021/03/05 13:43:22;;;;;;;5.00;0.70;;;;;;;;;;5042993;28;38673;-75
2021/03/05 13:45:49;;;;;;;4.03;0.77;;;;;;;;;;5059183;27;38433;-76
2021/03/05 13:48:16;;;;;;;7.10;0.70;;;;;;;;;;5051615;27;37016;-77
2021/03/05 13:50:42;;;;;;;4.53;0.80;;;;;;;;;;5023484;28;40001;-78
2021/03/05 13:53:09;;;;;;;4.83;0.87;;;;;;;;;;5016400;28;38365;-79
2021/03/05 13:55:35;;;;;;;5.17;0.83;;;;;;;;;;5012568;28;38534;-77
2021/03/05 13:58:02;;;;;;;2.43;0.50;;;;;;;;;;5021310;28;35884;-77
2021/03/05 14:00:29;;;;;;;4.20;0.63;;;;;;;;;;5023561;28;38807;-75
2021/03/05 14:02:55;;;;;;;2.43;0.60;;;;;;;;;;5017870;28;38115;-75
2021/03/05 14:05:22;;;;;;;6.87;0.83;;;;;;;;;;5019591;28;38050;-77
2021/03/05 14:07:48;;;;;;;2.97;0.70;;;;;;;;;;5019176;28;36472;-79
2021/03/05 14:10:14;;;;;;;3.13;0.53;;;;;;;;;;5037117;28;42260;-77
2021/03/05 14:12:41;;;;;;;6.60;0.90;;;;;;;;;;5018798;28;38410;-76
2021/03/05 14:15:07;;;;;;;3.63;0.70;;;;;;;;;;5033369;28;39483;-76
2021/03/05 14:17:34;;;;;;;4.00;0.60;;;;;;;;;;5027594;28;37374;-74
2021/03/05 14:20:00;;;;;;;3.93;0.57;;;;;;;;;;5035079;28;38981;-74
2021/03/05 14:22:28;;;;;;;3.80;0.83;;;;;;;;;;5028144;28;40564;-74
2021/03/05 14:24:54;;;;;;;3.07;0.83;;;;;;;;;;5037458;28;40073;-75
2021/03/05 14:27:21;;;;;;;5.83;0.80;;;;;;;;;;5038799;28;36900;-75
2021/03/05 14:29:47;;;;;;;7.33;1.00;;;;;;;;;;5060954;28;39082;-76
2021/03/05 14:32:14;;;;;;;6.40;0.80;;;;;;;;;;5041729;28;38688;-74
2021/03/05 14:34:40;;;;;;;3.93;0.90;;;;;;;;;;5050264;27;38385;-75
2021/03/05 14:37:06;;;;;;;8.13;1.53;;;;;;;;;;5033108;28;36898;-77
2021/03/05 14:39:33;;;;;;;3.03;0.67;;;;;;;;;;5041991;28;38726;-75